sensor_id;sensor_type;location;lat;lon;timestamp;P1;durP1;ratioP1;P2;durP2;ratioP2
27802;SDS011;15182;48.174;11.562;2023-04-08T00:01:19;7.97;;;7.27;;
27802;SDS011;15182;48.174;11.562;2023-04-08T00:03:50;7.50;;;6.90;;
27802;SDS011;15182;48.174;11.562;2023-04-08T00:06:22;7.90;;;7.30;;
27802;SDS011;15182;48.174;11.562;2023-04-08T00:08:53;7.83;;;7.03;;
27802;SDS011;15182;48.174;11.562;2023-04-08T00:11:25;7.93;;;7.17;;
27802;SDS011;15182;48.174;11.562;2023-04-08T00:13:56;7.13;;;6.57;;
27802;SDS011;15182;48.174;11.562;2023-04-08T00:16:30;6.60;;;6.20;;
27802;SDS011;15182;48.174;11.562;2023-04-08T00:19:01;7.40;;;6.87;;
27802;SDS011;15182;48.174;11.562;2023-04-08T00:21:33;7.60;;;7.10;;
27802;SDS011;15182;48.174;11.562;2023-04-08T00:24:04;8.07;;;7.37;;
27802;SDS011;15182;48.174;11.562;2023-04-08T00:26:36;7.53;;;6.83;;
27802;SDS011;15182;48.174;11.562;2023-04-08T00:29:07;6.87;;;6.37;;
27802;SDS011;15182;48.174;11.562;2023-04-08T00:31:40;7.57;;;6.63;;
27802;SDS011;15182;48.174;11.562;2023-04-08T00:34:14;7.70;;;7.20;;
27802;SDS011;15182;48.174;11.562;2023-04-08T00:36:46;7.23;;;6.77;;
27802;SDS011;15182;48.174;11.562;2023-04-08T00:39:19;7.60;;;6.90;;
27802;SDS011;15182;48.174;11.562;2023-04-08T00:41:50;6.57;;;6.17;;
27802;SDS011;15182;48.174;11.562;2023-04-08T00:44:24;6.40;;;5.93;;
27802;SDS011;15182;48.174;11.562;2023-04-08T00:46:57;6.87;;;6.43;;
27802;SDS011;15182;48.174;11.562;2023-04-08T00:49:29;7.13;;;6.43;;
27802;SDS011;15182;48.174;11.562;2023-04-08T00:52:00;6.17;;;5.83;;
27802;SDS011;15182;48.174;11.562;2023-04-08T00:54:32;6.77;;;6.27;;
27802;SDS011;15182;48.174;11.562;2023-04-08T00:57:04;5.93;;;5.73;;
27802;SDS011;15182;48.174;11.562;2023-04-08T00:59:35;6.63;;;6.10;;
27802;SDS011;15182;48.174;11.562;2023-04-08T01:02:11;6.93;;;6.53;;
27802;SDS011;15182;48.174;11.562;2023-04-08T01:04:53;6.27;;;5.83;;
27802;SDS011;15182;48.174;11.562;2023-04-08T01:07:29;5.87;;;5.50;;
27802;SDS011;15182;48.174;11.562;2023-04-08T01:10:04;5.63;;;5.33;;
27802;SDS011;15182;48.174;11.562;2023-04-08T01:12:39;5.97;;;5.67;;
27802;SDS011;15182;48.174;11.562;2023-04-08T01:15:16;5.80;;;5.50;;
27802;SDS011;15182;48.174;11.562;2023-04-08T01:17:50;6.40;;;5.83;;
27802;SDS011;15182;48.174;11.562;2023-04-08T01:20:26;5.70;;;5.43;;
27802;SDS011;15182;48.174;11.562;2023-04-08T01:23:01;5.73;;;5.33;;
27802;SDS011;15182;48.174;11.562;2023-04-08T01:25:38;5.93;;;5.63;;
27802;SDS011;15182;48.174;11.562;2023-04-08T01:28:13;5.90;;;5.57;;
27802;SDS011;15182;48.174;11.562;2023-04-08T01:30:47;5.30;;;5.00;;
27802;SDS011;15182;48.174;11.562;2023-04-08T01:33:23;5.93;;;5.50;;
27802;SDS011;15182;48.174;11.562;2023-04-08T01:35:55;5.47;;;5.27;;
27802;SDS011;15182;48.174;11.562;2023-04-08T01:38:30;5.17;;;4.97;;
27802;SDS011;15182;48.174;11.562;2023-04-08T01:41:04;5.80;;;5.40;;
27802;SDS011;15182;48.174;11.562;2023-04-08T01:43:37;5.23;;;5.00;;
27802;SDS011;15182;48.174;11.562;2023-04-08T01:46:11;5.37;;;5.20;;
27802;SDS011;15182;48.174;11.562;2023-04-08T01:48:43;5.83;;;5.53;;
27802;SDS011;15182;48.174;11.562;2023-04-08T01:51:15;5.20;;;5.00;;
27802;SDS011;15182;48.174;11.562;2023-04-08T01:53:47;5.50;;;5.20;;
27802;SDS011;15182;48.174;11.562;2023-04-08T01:56:20;5.07;;;4.87;;
27802;SDS011;15182;48.174;11.562;2023-04-08T01:58:57;5.13;;;4.93;;
27802;SDS011;15182;48.174;11.562;2023-04-08T02:01:35;5.07;;;4.87;;
27802;SDS011;15182;48.174;11.562;2023-04-08T02:04:08;5.10;;;4.80;;
27802;SDS011;15182;48.174;11.562;2023-04-08T02:06:40;6.00;;;5.70;;
27802;SDS011;15182;48.174;11.562;2023-04-08T02:09:11;5.33;;;5.03;;
27802;SDS011;15182;48.174;11.562;2023-04-08T02:11:44;5.30;;;5.10;;
27802;SDS011;15182;48.174;11.562;2023-04-08T02:14:15;5.40;;;5.10;;
27802;SDS011;15182;48.174;11.562;2023-04-08T02:16:48;5.73;;;5.43;;
27802;SDS011;15182;48.174;11.562;2023-04-08T02:19:27;5.30;;;5.10;;
27802;SDS011;15182;48.174;11.562;2023-04-08T02:22:10;6.00;;;5.70;;
27802;SDS011;15182;48.174;11.562;2023-04-08T02:24:46;5.50;;;5.30;;
27802;SDS011;15182;48.174;11.562;2023-04-08T02:27:20;6.37;;;5.97;;
27802;SDS011;15182;48.174;11.562;2023-04-08T02:29:55;5.67;;;5.33;;
27802;SDS011;15182;48.174;11.562;2023-04-08T02:32:30;6.00;;;5.50;;
27802;SDS011;15182;48.174;11.562;2023-04-08T02:35:03;6.27;;;5.93;;
27802;SDS011;15182;48.174;11.562;2023-04-08T02:37:39;6.17;;;5.77;;
27802;SDS011;15182;48.174;11.562;2023-04-08T02:43:04;6.30;;;6.00;;
27802;SDS011;15182;48.174;11.562;2023-04-08T02:45:40;5.27;;;4.97;;
27802;SDS011;15182;48.174;11.562;2023-04-08T02:48:11;6.03;;;5.73;;
27802;SDS011;15182;48.174;11.562;2023-04-08T02:50:43;5.83;;;5.53;;
27802;SDS011;15182;48.174;11.562;2023-04-08T02:53:14;5.80;;;5.40;;
27802;SDS011;15182;48.174;11.562;2023-04-08T02:55:45;5.73;;;5.43;;
27802;SDS011;15182;48.174;11.562;2023-04-08T02:58:18;6.23;;;5.83;;
27802;SDS011;15182;48.174;11.562;2023-04-08T03:00:49;6.03;;;5.73;;
27802;SDS011;15182;48.174;11.562;2023-04-08T03:03:20;5.77;;;5.57;;
27802;SDS011;15182;48.174;11.562;2023-04-08T03:05:54;6.20;;;5.90;;
27802;SDS011;15182;48.174;11.562;2023-04-08T03:08:26;6.20;;;5.60;;
27802;SDS011;15182;48.174;11.562;2023-04-08T03:10:58;6.20;;;5.80;;
27802;SDS011;15182;48.174;11.562;2023-04-08T03:13:31;6.67;;;6.17;;
27802;SDS011;15182;48.174;11.562;2023-04-08T03:16:02;6.23;;;5.93;;
27802;SDS011;15182;48.174;11.562;2023-04-08T03:18:37;6.47;;;6.07;;
27802;SDS011;15182;48.174;11.562;2023-04-08T03:21:08;6.57;;;6.07;;
27802;SDS011;15182;48.174;11.562;2023-04-08T03:23:41;6.30;;;6.00;;
27802;SDS011;15182;48.174;11.562;2023-04-08T03:26:12;6.50;;;6.10;;
27802;SDS011;15182;48.174;11.562;2023-04-08T03:28:45;6.83;;;6.30;;
27802;SDS011;15182;48.174;11.562;2023-04-08T03:31:16;6.63;;;6.27;;
27802;SDS011;15182;48.174;11.562;2023-04-08T03:33:48;6.07;;;5.77;;
27802;SDS011;15182;48.174;11.562;2023-04-08T03:36:19;6.63;;;6.23;;
27802;SDS011;15182;48.174;11.562;2023-04-08T03:38:51;6.70;;;6.30;;
27802;SDS011;15182;48.174;11.562;2023-04-08T03:41:22;6.57;;;6.27;;
27802;SDS011;15182;48.174;11.562;2023-04-08T03:43:55;7.30;;;6.90;;
27802;SDS011;15182;48.174;11.562;2023-04-08T03:46:26;6.80;;;6.20;;
27802;SDS011;15182;48.174;11.562;2023-04-08T03:48:58;7.47;;;7.03;;
27802;SDS011;15182;48.174;11.562;2023-04-08T03:51:29;6.90;;;6.50;;
27802;SDS011;15182;48.174;11.562;2023-04-08T03:54:00;7.53;;;6.93;;
27802;SDS011;15182;48.174;11.562;2023-04-08T03:56:32;6.60;;;6.20;;
27802;SDS011;15182;48.174;11.562;2023-04-08T03:59:05;7.03;;;6.63;;
27802;SDS011;15182;48.174;11.562;2023-04-08T04:01:38;6.50;;;6.00;;
27802;SDS011;15182;48.174;11.562;2023-04-08T04:04:09;6.53;;;6.07;;
27802;SDS011;15182;48.174;11.562;2023-04-08T04:06:42;7.80;;;7.17;;
27802;SDS011;15182;48.174;11.562;2023-04-08T04:09:14;7.10;;;6.57;;
27802;SDS011;15182;48.174;11.562;2023-04-08T04:11:47;7.17;;;6.80;;
27802;SDS011;15182;48.174;11.562;2023-04-08T04:14:20;7.80;;;7.20;;
27802;SDS011;15182;48.174;11.562;2023-04-08T04:16:51;7.50;;;7.07;;
27802;SDS011;15182;48.174;11.562;2023-04-08T04:19:22;7.47;;;7.00;;
27802;SDS011;15182;48.174;11.562;2023-04-08T04:21:57;7.77;;;7.17;;
27802;SDS011;15182;48.174;11.562;2023-04-08T04:24:29;8.00;;;7.17;;
27802;SDS011;15182;48.174;11.562;2023-04-08T04:27:00;7.50;;;6.97;;
27802;SDS011;15182;48.174;11.562;2023-04-08T04:29:32;8.00;;;7.40;;
27802;SDS011;15182;48.174;11.562;2023-04-08T04:32:04;8.03;;;7.37;;
27802;SDS011;15182;48.174;11.562;2023-04-08T04:34:35;7.87;;;7.37;;
27802;SDS011;15182;48.174;11.562;2023-04-08T04:37:07;8.03;;;7.37;;
27802;SDS011;15182;48.174;11.562;2023-04-08T04:39:38;7.97;;;7.37;;
27802;SDS011;15182;48.174;11.562;2023-04-08T04:42:09;8.03;;;7.37;;
27802;SDS011;15182;48.174;11.562;2023-04-08T04:44:42;7.23;;;6.80;;
27802;SDS011;15182;48.174;11.562;2023-04-08T04:47:14;8.10;;;7.30;;
27802;SDS011;15182;48.174;11.562;2023-04-08T04:49:47;8.00;;;7.40;;
27802;SDS011;15182;48.174;11.562;2023-04-08T04:52:20;7.97;;;7.27;;
27802;SDS011;15182;48.174;11.562;2023-04-08T04:54:53;8.30;;;7.70;;
27802;SDS011;15182;48.174;11.562;2023-04-08T04:57:24;8.93;;;8.13;;
27802;SDS011;15182;48.174;11.562;2023-04-08T04:59:57;8.90;;;8.10;;
27802;SDS011;15182;48.174;11.562;2023-04-08T05:02:29;8.17;;;7.53;;
27802;SDS011;15182;48.174;11.562;2023-04-08T05:05:00;8.33;;;7.70;;
27802;SDS011;15182;48.174;11.562;2023-04-08T05:07:34;9.07;;;8.37;;
27802;SDS011;15182;48.174;11.562;2023-04-08T05:10:07;8.17;;;7.47;;
27802;SDS011;15182;48.174;11.562;2023-04-08T05:12:38;8.60;;;7.83;;
27802;SDS011;15182;48.174;11.562;2023-04-08T05:15:11;8.17;;;7.47;;
27802;SDS011;15182;48.174;11.562;2023-04-08T05:17:42;8.90;;;8.20;;
27802;SDS011;15182;48.174;11.562;2023-04-08T05:20:14;9.13;;;8.33;;
27802;SDS011;15182;48.174;11.562;2023-04-08T05:22:48;8.73;;;7.80;;
27802;SDS011;15182;48.174;11.562;2023-04-08T05:25:19;9.27;;;8.37;;
27802;SDS011;15182;48.174;11.562;2023-04-08T05:27:52;9.03;;;8.20;;
27802;SDS011;15182;48.174;11.562;2023-04-08T05:30:25;10.07;;;8.60;;
27802;SDS011;15182;48.174;11.562;2023-04-08T05:32:59;9.73;;;8.73;;
27802;SDS011;15182;48.174;11.562;2023-04-08T05:35:30;10.33;;;8.97;;
27802;SDS011;15182;48.174;11.562;2023-04-08T05:38:01;9.40;;;8.50;;
27802;SDS011;15182;48.174;11.562;2023-04-08T05:40:33;10.47;;;9.47;;
27802;SDS011;15182;48.174;11.562;2023-04-08T05:43:04;9.27;;;8.47;;
27802;SDS011;15182;48.174;11.562;2023-04-08T05:45:37;9.50;;;8.77;;
27802;SDS011;15182;48.174;11.562;2023-04-08T05:48:08;9.47;;;8.53;;
27802;SDS011;15182;48.174;11.562;2023-04-08T05:50:39;11.87;;;8.90;;
27802;SDS011;15182;48.174;11.562;2023-04-08T05:53:13;12.83;;;9.23;;
27802;SDS011;15182;48.174;11.562;2023-04-08T05:55:44;13.10;;;9.40;;
27802;SDS011;15182;48.174;11.562;2023-04-08T05:58:16;10.07;;;9.07;;
27802;SDS011;15182;48.174;11.562;2023-04-08T06:00:48;9.40;;;8.53;;
27802;SDS011;15182;48.174;11.562;2023-04-08T06:03:21;10.27;;;9.20;;
27802;SDS011;15182;48.174;11.562;2023-04-08T06:05:54;11.93;;;9.70;;
27802;SDS011;15182;48.174;11.562;2023-04-08T06:08:25;12.43;;;9.20;;
27802;SDS011;15182;48.174;11.562;2023-04-08T06:10:58;9.33;;;8.43;;
27802;SDS011;15182;48.174;11.562;2023-04-08T06:13:30;10.53;;;9.43;;
27802;SDS011;15182;48.174;11.562;2023-04-08T06:16:10;9.90;;;8.90;;
27802;SDS011;15182;48.174;11.562;2023-04-08T06:18:42;9.40;;;8.57;;
27802;SDS011;15182;48.174;11.562;2023-04-08T06:21:14;9.83;;;8.93;;
27802;SDS011;15182;48.174;11.562;2023-04-08T06:23:46;11.30;;;9.30;;
27802;SDS011;15182;48.174;11.562;2023-04-08T06:26:17;10.37;;;9.37;;
27802;SDS011;15182;48.174;11.562;2023-04-08T06:28:48;9.83;;;8.90;;
27802;SDS011;15182;48.174;11.562;2023-04-08T06:31:21;9.97;;;8.73;;
27802;SDS011;15182;48.174;11.562;2023-04-08T06:33:54;9.13;;;8.20;;
27802;SDS011;15182;48.174;11.562;2023-04-08T06:36:25;10.20;;;9.13;;
27802;SDS011;15182;48.174;11.562;2023-04-08T06:38:59;15.07;;;9.63;;
27802;SDS011;15182;48.174;11.562;2023-04-08T06:41:30;10.23;;;8.57;;
27802;SDS011;15182;48.174;11.562;2023-04-08T06:44:16;12.33;;;8.97;;
27802;SDS011;15182;48.174;11.562;2023-04-08T06:46:48;9.60;;;8.40;;
27802;SDS011;15182;48.174;11.562;2023-04-08T06:49:20;11.63;;;9.50;;
27802;SDS011;15182;48.174;11.562;2023-04-08T06:51:52;9.77;;;8.87;;
27802;SDS011;15182;48.174;11.562;2023-04-08T06:54:24;10.70;;;9.30;;
27802;SDS011;15182;48.174;11.562;2023-04-08T06:56:55;11.00;;;9.90;;
27802;SDS011;15182;48.174;11.562;2023-04-08T06:59:26;10.33;;;9.33;;
27802;SDS011;15182;48.174;11.562;2023-04-08T07:01:59;11.27;;;10.03;;
27802;SDS011;15182;48.174;11.562;2023-04-08T07:04:30;11.90;;;10.07;;
27802;SDS011;15182;48.174;11.562;2023-04-08T07:07:04;11.40;;;10.23;;
27802;SDS011;15182;48.174;11.562;2023-04-08T07:09:35;10.83;;;9.67;;
27802;SDS011;15182;48.174;11.562;2023-04-08T07:12:09;13.70;;;10.70;;
27802;SDS011;15182;48.174;11.562;2023-04-08T07:14:41;16.70;;;10.30;;
27802;SDS011;15182;48.174;11.562;2023-04-08T07:17:13;10.73;;;9.63;;
27802;SDS011;15182;48.174;11.562;2023-04-08T07:19:45;13.33;;;9.93;;
27802;SDS011;15182;48.174;11.562;2023-04-08T07:22:17;11.60;;;9.63;;
27802;SDS011;15182;48.174;11.562;2023-04-08T07:24:48;11.50;;;10.40;;
27802;SDS011;15182;48.174;11.562;2023-04-08T07:27:20;12.90;;;10.47;;
27802;SDS011;15182;48.174;11.562;2023-04-08T07:29:51;13.93;;;10.83;;
27802;SDS011;15182;48.174;11.562;2023-04-08T07:32:24;10.67;;;9.57;;
27802;SDS011;15182;48.174;11.562;2023-04-08T07:34:57;16.67;;;10.80;;
27802;SDS011;15182;48.174;11.562;2023-04-08T07:37:31;12.37;;;9.63;;
27802;SDS011;15182;48.174;11.562;2023-04-08T07:40:05;11.83;;;9.50;;
27802;SDS011;15182;48.174;11.562;2023-04-08T07:42:39;11.27;;;10.10;;
27802;SDS011;15182;48.174;11.562;2023-04-08T07:45:12;12.43;;;10.07;;
27802;SDS011;15182;48.174;11.562;2023-04-08T07:47:44;10.60;;;9.53;;
27802;SDS011;15182;48.174;11.562;2023-04-08T07:50:18;11.70;;;9.67;;
27802;SDS011;15182;48.174;11.562;2023-04-08T07:52:49;10.83;;;9.73;;
27802;SDS011;15182;48.174;11.562;2023-04-08T07:55:21;10.13;;;9.13;;
27802;SDS011;15182;48.174;11.562;2023-04-08T07:57:52;10.50;;;9.40;;
27802;SDS011;15182;48.174;11.562;2023-04-08T08:00:23;9.17;;;8.33;;
27802;SDS011;15182;48.174;11.562;2023-04-08T08:02:57;8.97;;;8.17;;
27802;SDS011;15182;48.174;11.562;2023-04-08T08:05:29;9.90;;;8.93;;
27802;SDS011;15182;48.174;11.562;2023-04-08T08:08:00;10.83;;;8.77;;
27802;SDS011;15182;48.174;11.562;2023-04-08T08:10:32;12.20;;;8.97;;
27802;SDS011;15182;48.174;11.562;2023-04-08T08:13:03;10.13;;;8.47;;
27802;SDS011;15182;48.174;11.562;2023-04-08T08:15:37;9.50;;;8.50;;
27802;SDS011;15182;48.174;11.562;2023-04-08T08:18:09;9.20;;;8.30;;
27802;SDS011;15182;48.174;11.562;2023-04-08T08:20:41;10.50;;;9.50;;
27802;SDS011;15182;48.174;11.562;2023-04-08T08:23:14;12.37;;;9.27;;
27802;SDS011;15182;48.174;11.562;2023-04-08T08:25:45;9.87;;;8.53;;
27802;SDS011;15182;48.174;11.562;2023-04-08T08:28:22;10.77;;;8.40;;
27802;SDS011;15182;48.174;11.562;2023-04-08T08:30:54;11.77;;;8.73;;
27802;SDS011;15182;48.174;11.562;2023-04-08T08:33:26;10.00;;;8.83;;
27802;SDS011;15182;48.174;11.562;2023-04-08T08:35:58;8.83;;;8.07;;
27802;SDS011;15182;48.174;11.562;2023-04-08T08:38:31;9.97;;;8.97;;
27802;SDS011;15182;48.174;11.562;2023-04-08T08:41:03;10.10;;;9.10;;
27802;SDS011;15182;48.174;11.562;2023-04-08T08:43:34;9.63;;;8.70;;
27802;SDS011;15182;48.174;11.562;2023-04-08T08:46:07;9.43;;;8.57;;
27802;SDS011;15182;48.174;11.562;2023-04-08T08:48:45;11.13;;;9.83;;
27802;SDS011;15182;48.174;11.562;2023-04-08T08:51:18;10.33;;;9.30;;
27802;SDS011;15182;48.174;11.562;2023-04-08T08:53:51;10.57;;;8.50;;
27802;SDS011;15182;48.174;11.562;2023-04-08T08:56:24;10.30;;;9.20;;
27802;SDS011;15182;48.174;11.562;2023-04-08T08:58:58;11.40;;;9.57;;
27802;SDS011;15182;48.174;11.562;2023-04-08T09:01:33;9.83;;;8.93;;
27802;SDS011;15182;48.174;11.562;2023-04-08T09:04:09;8.47;;;7.67;;
27802;SDS011;15182;48.174;11.562;2023-04-08T09:06:44;9.83;;;8.73;;
27802;SDS011;15182;48.174;11.562;2023-04-08T09:09:45;8.93;;;8.20;;
27802;SDS011;15182;48.174;11.562;2023-04-08T09:12:20;10.37;;;9.23;;
27802;SDS011;15182;48.174;11.562;2023-04-08T09:15:02;8.97;;;8.17;;
27802;SDS011;15182;48.174;11.562;2023-04-08T09:17:34;8.97;;;8.17;;
27802;SDS011;15182;48.174;11.562;2023-04-08T09:20:08;9.37;;;8.47;;
27802;SDS011;15182;48.174;11.562;2023-04-08T09:22:54;8.60;;;7.80;;
27802;SDS011;15182;48.174;11.562;2023-04-08T09:25:28;9.40;;;8.47;;
27802;SDS011;15182;48.174;11.562;2023-04-08T09:28:00;8.73;;;7.97;;
27802;SDS011;15182;48.174;11.562;2023-04-08T09:30:32;8.23;;;7.50;;
27802;SDS011;15182;48.174;11.562;2023-04-08T09:33:03;8.93;;;8.03;;
27802;SDS011;15182;48.174;11.562;2023-04-08T09:35:36;8.07;;;7.47;;
27802;SDS011;15182;48.174;11.562;2023-04-08T09:38:08;8.47;;;7.67;;
27802;SDS011;15182;48.174;11.562;2023-04-08T09:40:41;9.33;;;8.53;;
27802;SDS011;15182;48.174;11.562;2023-04-08T09:43:13;9.40;;;8.53;;
27802;SDS011;15182;48.174;11.562;2023-04-08T09:45:48;9.93;;;8.93;;
27802;SDS011;15182;48.174;11.562;2023-04-08T09:48:23;9.63;;;8.67;;
27802;SDS011;15182;48.174;11.562;2023-04-08T09:51:02;9.90;;;8.97;;
27802;SDS011;15182;48.174;11.562;2023-04-08T09:53:35;9.87;;;8.97;;
27802;SDS011;15182;48.174;11.562;2023-04-08T09:56:12;11.00;;;9.57;;
27802;SDS011;15182;48.174;11.562;2023-04-08T09:58:48;10.53;;;8.70;;
27802;SDS011;15182;48.174;11.562;2023-04-08T10:01:29;9.70;;;8.73;;
27802;SDS011;15182;48.174;11.562;2023-04-08T10:04:07;10.47;;;9.47;;
27802;SDS011;15182;48.174;11.562;2023-04-08T10:06:42;12.20;;;10.27;;
27802;SDS011;15182;48.174;11.562;2023-04-08T10:09:16;10.53;;;9.43;;
27802;SDS011;15182;48.174;11.562;2023-04-08T10:11:46;13.43;;;10.53;;
27802;SDS011;15182;48.174;11.562;2023-04-08T10:14:18;12.10;;;9.60;;
27802;SDS011;15182;48.174;11.562;2023-04-08T10:19:53;11.83;;;10.20;;
27802;SDS011;15182;48.174;11.562;2023-04-08T10:25:31;11.67;;;10.30;;
27802;SDS011;15182;48.174;11.562;2023-04-08T10:30:52;12.00;;;10.10;;
27802;SDS011;15182;48.174;11.562;2023-04-08T10:33:32;11.73;;;9.70;;
27802;SDS011;15182;48.174;11.562;2023-04-08T10:36:09;10.53;;;9.53;;
27802;SDS011;15182;48.174;11.562;2023-04-08T10:38:43;12.90;;;10.30;;
27802;SDS011;15182;48.174;11.562;2023-04-08T10:41:17;11.73;;;10.10;;
27802;SDS011;15182;48.174;11.562;2023-04-08T10:43:53;20.07;;;11.00;;
27802;SDS011;15182;48.174;11.562;2023-04-08T10:46:27;22.30;;;11.80;;
27802;SDS011;15182;48.174;11.562;2023-04-08T10:49:06;21.60;;;11.70;;
27802;SDS011;15182;48.174;11.562;2023-04-08T10:51:39;21.73;;;12.50;;
27802;SDS011;15182;48.174;11.562;2023-04-08T10:54:13;19.30;;;11.87;;
27802;SDS011;15182;48.174;11.562;2023-04-08T10:56:46;13.00;;;10.60;;
27802;SDS011;15182;48.174;11.562;2023-04-08T10:59:26;13.60;;;11.30;;
27802;SDS011;15182;48.174;11.562;2023-04-08T11:01:57;12.00;;;10.70;;
27802;SDS011;15182;48.174;11.562;2023-04-08T11:04:31;11.43;;;10.20;;
27802;SDS011;15182;48.174;11.562;2023-04-08T11:07:09;14.73;;;11.27;;
27802;SDS011;15182;48.174;11.562;2023-04-08T11:09:42;11.37;;;10.10;;
27802;SDS011;15182;48.174;11.562;2023-04-08T11:12:14;15.10;;;11.23;;
27802;SDS011;15182;48.174;11.562;2023-04-08T11:14:46;10.77;;;9.73;;
27802;SDS011;15182;48.174;11.562;2023-04-08T11:17:19;10.77;;;9.70;;
27802;SDS011;15182;48.174;11.562;2023-04-08T11:19:51;11.90;;;10.37;;
27802;SDS011;15182;48.174;11.562;2023-04-08T11:22:27;11.80;;;10.60;;
27802;SDS011;15182;48.174;11.562;2023-04-08T11:25:00;11.47;;;10.10;;
27802;SDS011;15182;48.174;11.562;2023-04-08T11:27:36;11.57;;;9.60;;
27802;SDS011;15182;48.174;11.562;2023-04-08T11:30:08;13.83;;;10.90;;
27802;SDS011;15182;48.174;11.562;2023-04-08T11:32:42;12.03;;;10.33;;
27802;SDS011;15182;48.174;11.562;2023-04-08T11:35:12;11.23;;;10.03;;
27802;SDS011;15182;48.174;11.562;2023-04-08T11:37:46;11.10;;;9.50;;
27802;SDS011;15182;48.174;11.562;2023-04-08T11:40:22;11.07;;;10.00;;
27802;SDS011;15182;48.174;11.562;2023-04-08T11:42:53;13.20;;;9.77;;
27802;SDS011;15182;48.174;11.562;2023-04-08T11:45:24;10.13;;;9.33;;
27802;SDS011;15182;48.174;11.562;2023-04-08T11:47:56;11.17;;;9.63;;
27802;SDS011;15182;48.174;11.562;2023-04-08T11:50:27;11.20;;;9.93;;
27802;SDS011;15182;48.174;11.562;2023-04-08T11:52:59;11.20;;;10.10;;
27802;SDS011;15182;48.174;11.562;2023-04-08T11:55:32;13.10;;;9.50;;
27802;SDS011;15182;48.174;11.562;2023-04-08T11:58:03;11.90;;;9.60;;
27802;SDS011;15182;48.174;11.562;2023-04-08T12:00:37;10.97;;;9.40;;
27802;SDS011;15182;48.174;11.562;2023-04-08T12:03:08;9.37;;;8.57;;
27802;SDS011;15182;48.174;11.562;2023-04-08T12:05:42;9.63;;;8.83;;
27802;SDS011;15182;48.174;11.562;2023-04-08T12:08:14;10.47;;;9.47;;
27802;SDS011;15182;48.174;11.562;2023-04-08T12:10:46;9.30;;;8.50;;
27802;SDS011;15182;48.174;11.562;2023-04-08T12:13:18;9.93;;;9.13;;
27802;SDS011;15182;48.174;11.562;2023-04-08T12:15:50;9.93;;;9.00;;
27802;SDS011;15182;48.174;11.562;2023-04-08T12:18:21;9.60;;;8.70;;
27802;SDS011;15182;48.174;11.562;2023-04-08T12:20:53;9.50;;;8.60;;
27802;SDS011;15182;48.174;11.562;2023-04-08T12:23:24;9.60;;;8.60;;
27802;SDS011;15182;48.174;11.562;2023-04-08T12:25:57;9.40;;;8.60;;
27802;SDS011;15182;48.174;11.562;2023-04-08T12:28:28;9.10;;;8.30;;
27802;SDS011;15182;48.174;11.562;2023-04-08T12:31:00;9.60;;;8.70;;
27802;SDS011;15182;48.174;11.562;2023-04-08T12:33:32;8.87;;;8.17;;
27802;SDS011;15182;48.174;11.562;2023-04-08T12:36:03;9.27;;;8.47;;
27802;SDS011;15182;48.174;11.562;2023-04-08T12:38:35;9.60;;;8.70;;
27802;SDS011;15182;48.174;11.562;2023-04-08T12:41:08;16.33;;;10.27;;
27802;SDS011;15182;48.174;11.562;2023-04-08T12:43:41;13.20;;;9.13;;
27802;SDS011;15182;48.174;11.562;2023-04-08T12:46:12;14.70;;;10.40;;
27802;SDS011;15182;48.174;11.562;2023-04-08T12:48:46;10.63;;;8.83;;
27802;SDS011;15182;48.174;11.562;2023-04-08T12:51:17;9.83;;;8.93;;
27802;SDS011;15182;48.174;11.562;2023-04-08T12:53:51;10.30;;;9.20;;
27802;SDS011;15182;48.174;11.562;2023-04-08T12:56:23;11.40;;;9.43;;
27802;SDS011;15182;48.174;11.562;2023-04-08T12:58:55;9.50;;;8.50;;
27802;SDS011;15182;48.174;11.562;2023-04-08T13:01:27;9.83;;;8.17;;
27802;SDS011;15182;48.174;11.562;2023-04-08T13:03:58;8.87;;;7.97;;
27802;SDS011;15182;48.174;11.562;2023-04-08T13:06:30;8.30;;;7.63;;
27802;SDS011;15182;48.174;11.562;2023-04-08T13:08:59;8.27;;;7.67;;
27802;SDS011;15182;48.174;11.562;2023-04-08T13:11:32;8.67;;;7.90;;
27802;SDS011;15182;48.174;11.562;2023-04-08T13:14:03;8.90;;;8.10;;
27802;SDS011;15182;48.174;11.562;2023-04-08T13:16:34;8.33;;;7.70;;
27802;SDS011;15182;48.174;11.562;2023-04-08T13:19:06;9.63;;;8.73;;
27802;SDS011;15182;48.174;11.562;2023-04-08T13:21:37;9.03;;;8.13;;
27802;SDS011;15182;48.174;11.562;2023-04-08T13:24:08;9.43;;;8.53;;
27802;SDS011;15182;48.174;11.562;2023-04-08T13:26:41;8.33;;;7.63;;
27802;SDS011;15182;48.174;11.562;2023-04-08T13:29:12;8.00;;;7.40;;
27802;SDS011;15182;48.174;11.562;2023-04-08T13:31:43;7.47;;;6.97;;
27802;SDS011;15182;48.174;11.562;2023-04-08T13:34:16;8.97;;;7.60;;
27802;SDS011;15182;48.174;11.562;2023-04-08T13:36:49;11.43;;;8.77;;
27802;SDS011;15182;48.174;11.562;2023-04-08T13:39:20;18.00;;;10.27;;
27802;SDS011;15182;48.174;11.562;2023-04-08T13:41:52;19.03;;;11.03;;
27802;SDS011;15182;48.174;11.562;2023-04-08T13:44:24;11.33;;;8.57;;
27802;SDS011;15182;48.174;11.562;2023-04-08T13:46:57;8.90;;;8.00;;
27802;SDS011;15182;48.174;11.562;2023-04-08T13:49:28;8.80;;;7.97;;
27802;SDS011;15182;48.174;11.562;2023-04-08T13:52:00;8.60;;;7.87;;
27802;SDS011;15182;48.174;11.562;2023-04-08T13:54:32;7.87;;;7.17;;
27802;SDS011;15182;48.174;11.562;2023-04-08T13:57:04;9.40;;;8.53;;
27802;SDS011;15182;48.174;11.562;2023-04-08T13:59:35;8.20;;;7.50;;
27802;SDS011;15182;48.174;11.562;2023-04-08T14:02:06;8.43;;;7.77;;
27802;SDS011;15182;48.174;11.562;2023-04-08T14:04:38;7.97;;;7.40;;
27802;SDS011;15182;48.174;11.562;2023-04-08T14:07:10;7.63;;;7.13;;
27802;SDS011;15182;48.174;11.562;2023-04-08T14:09:42;7.33;;;6.90;;
27802;SDS011;15182;48.174;11.562;2023-04-08T14:12:14;8.60;;;7.83;;
27802;SDS011;15182;48.174;11.562;2023-04-08T14:14:45;11.23;;;8.10;;
27802;SDS011;15182;48.174;11.562;2023-04-08T14:17:16;14.43;;;9.63;;
27802;SDS011;15182;48.174;11.562;2023-04-08T14:19:48;12.50;;;9.27;;
27802;SDS011;15182;48.174;11.562;2023-04-08T14:22:19;13.90;;;9.47;;
27802;SDS011;15182;48.174;11.562;2023-04-08T14:24:50;11.00;;;8.33;;
27802;SDS011;15182;48.174;11.562;2023-04-08T14:27:23;8.40;;;7.60;;
27802;SDS011;15182;48.174;11.562;2023-04-08T14:29:56;8.63;;;7.77;;
27802;SDS011;15182;48.174;11.562;2023-04-08T14:32:28;8.17;;;7.30;;
27802;SDS011;15182;48.174;11.562;2023-04-08T14:35:00;9.23;;;8.27;;
27802;SDS011;15182;48.174;11.562;2023-04-08T14:37:32;8.43;;;7.73;;
27802;SDS011;15182;48.174;11.562;2023-04-08T14:40:06;9.27;;;8.17;;
27802;SDS011;15182;48.174;11.562;2023-04-08T14:42:41;10.53;;;8.73;;
27802;SDS011;15182;48.174;11.562;2023-04-08T14:45:14;8.63;;;7.87;;
27802;SDS011;15182;48.174;11.562;2023-04-08T14:47:46;8.43;;;7.73;;
27802;SDS011;15182;48.174;11.562;2023-04-08T14:50:17;9.50;;;8.47;;
27802;SDS011;15182;48.174;11.562;2023-04-08T14:52:48;9.63;;;8.63;;
27802;SDS011;15182;48.174;11.562;2023-04-08T14:55:20;9.47;;;8.57;;
27802;SDS011;15182;48.174;11.562;2023-04-08T14:57:54;9.13;;;8.13;;
27802;SDS011;15182;48.174;11.562;2023-04-08T15:00:25;9.87;;;8.67;;
27802;SDS011;15182;48.174;11.562;2023-04-08T15:02:58;11.17;;;9.60;;
27802;SDS011;15182;48.174;11.562;2023-04-08T15:05:30;11.33;;;9.60;;
27802;SDS011;15182;48.174;11.562;2023-04-08T15:08:03;10.77;;;9.63;;
27802;SDS011;15182;48.174;11.562;2023-04-08T15:10:35;13.90;;;10.10;;
27802;SDS011;15182;48.174;11.562;2023-04-08T15:13:07;11.53;;;9.90;;